sensor_id;sensor_type;location;lat;lon;timestamp;temperature;humidity
10051;DHT22;5065;46.942;7.432;2023-06-26T00:01:40;25.10;99.50
10051;DHT22;5065;46.942;7.432;2023-06-26T00:04:08;25.10;99.50
10051;DHT22;5065;46.942;7.432;2023-06-26T00:06:40;25.10;99.50
10051;DHT22;5065;46.942;7.432;2023-06-26T00:09:08;25.00;99.30
10051;DHT22;5065;46.942;7.432;2023-06-26T00:11:36;25.00;99.70
10051;DHT22;5065;46.942;7.432;2023-06-26T00:14:03;25.00;99.30
10051;DHT22;5065;46.942;7.432;2023-06-26T00:16:30;25.00;99.30
10051;DHT22;5065;46.942;7.432;2023-06-26T00:18:57;24.90;99.20
10051;DHT22;5065;46.942;7.432;2023-06-26T00:21:25;24.90;99.30
10051;DHT22;5065;46.942;7.432;2023-06-26T00:23:53;24.80;99.40
10051;DHT22;5065;46.942;7.432;2023-06-26T00:26:22;24.80;99.60
10051;DHT22;5065;46.942;7.432;2023-06-26T00:28:49;24.70;99.90
10051;DHT22;5065;46.942;7.432;2023-06-26T00:31:17;24.80;99.90
10051;DHT22;5065;46.942;7.432;2023-06-26T00:33:44;24.70;99.90
10051;DHT22;5065;46.942;7.432;2023-06-26T00:36:11;24.60;99.90
10051;DHT22;5065;46.942;7.432;2023-06-26T00:38:38;24.50;99.90
10051;DHT22;5065;46.942;7.432;2023-06-26T00:41:05;24.50;99.90
10051;DHT22;5065;46.942;7.432;2023-06-26T00:43:39;24.40;99.90
10051;DHT22;5065;46.942;7.432;2023-06-26T00:46:07;24.30;99.90
10051;DHT22;5065;46.942;7.432;2023-06-26T00:48:35;24.20;99.90
10051;DHT22;5065;46.942;7.432;2023-06-26T00:51:02;24.10;99.90
10051;DHT22;5065;46.942;7.432;2023-06-26T00:53:29;24.00;99.90
10051;DHT22;5065;46.942;7.432;2023-06-26T00:55:56;24.00;99.90
10051;DHT22;5065;46.942;7.432;2023-06-26T00:58:24;23.90;99.90
10051;DHT22;5065;46.942;7.432;2023-06-26T01:00:52;23.80;99.90
10051;DHT22;5065;46.942;7.432;2023-06-26T01:03:20;23.80;99.90
10051;DHT22;5065;46.942;7.432;2023-06-26T01:05:48;23.70;99.90
10051;DHT22;5065;46.942;7.432;2023-06-26T01:08:16;23.60;99.90
10051;DHT22;5065;46.942;7.432;2023-06-26T01:10:45;23.60;99.90
10051;DHT22;5065;46.942;7.432;2023-06-26T01:13:13;23.50;99.90
10051;DHT22;5065;46.942;7.432;2023-06-26T01:15:40;23.50;99.90
10051;DHT22;5065;46.942;7.432;2023-06-26T01:18:09;23.50;99.90
10051;DHT22;5065;46.942;7.432;2023-06-26T01:20:38;23.50;99.90
10051;DHT22;5065;46.942;7.432;2023-06-26T01:23:12;23.50;99.90
10051;DHT22;5065;46.942;7.432;2023-06-26T01:25:56;23.40;99.90
10051;DHT22;5065;46.942;7.432;2023-06-26T01:28:28;23.30;99.90
10051;DHT22;5065;46.942;7.432;2023-06-26T01:30:56;23.30;99.90
10051;DHT22;5065;46.942;7.432;2023-06-26T01:33:23;23.20;99.90
10051;DHT22;5065;46.942;7.432;2023-06-26T01:35:51;23.10;99.90
10051;DHT22;5065;46.942;7.432;2023-06-26T01:38:19;23.10;99.90
10051;DHT22;5065;46.942;7.432;2023-06-26T01:40:49;23.00;99.90
10051;DHT22;5065;46.942;7.432;2023-06-26T01:43:23;23.00;99.90
10051;DHT22;5065;46.942;7.432;2023-06-26T01:45:55;23.00;99.90
10051;DHT22;5065;46.942;7.432;2023-06-26T01:48:28;22.90;99.90
10051;DHT22;5065;46.942;7.432;2023-06-26T01:50:58;22.90;99.90
10051;DHT22;5065;46.942;7.432;2023-06-26T01:53:29;22.90;99.90
10051;DHT22;5065;46.942;7.432;2023-06-26T01:56:01;22.80;99.90
10051;DHT22;5065;46.942;7.432;2023-06-26T01:58:32;22.80;99.90
10051;DHT22;5065;46.942;7.432;2023-06-26T02:01:01;22.70;99.90
10051;DHT22;5065;46.942;7.432;2023-06-26T02:03:28;22.70;99.90
10051;DHT22;5065;46.942;7.432;2023-06-26T02:05:56;22.60;99.90
10051;DHT22;5065;46.942;7.432;2023-06-26T02:08:23;22.60;99.90
10051;DHT22;5065;46.942;7.432;2023-06-26T02:10:50;22.50;99.90
10051;DHT22;5065;46.942;7.432;2023-06-26T02:13:18;22.50;99.90
10051;DHT22;5065;46.942;7.432;2023-06-26T02:15:45;22.40;99.90
10051;DHT22;5065;46.942;7.432;2023-06-26T02:18:14;22.40;99.90
10051;DHT22;5065;46.942;7.432;2023-06-26T02:20:41;22.40;99.90
10051;DHT22;5065;46.942;7.432;2023-06-26T02:23:09;22.40;99.90
10051;DHT22;5065;46.942;7.432;2023-06-26T02:25:36;22.30;99.90
10051;DHT22;5065;46.942;7.432;2023-06-26T02:28:04;22.30;99.90
10051;DHT22;5065;46.942;7.432;2023-06-26T02:30:31;22.30;99.90
10051;DHT22;5065;46.942;7.432;2023-06-26T02:32:58;22.30;99.90
10051;DHT22;5065;46.942;7.432;2023-06-26T02:35:27;22.20;99.90
10051;DHT22;5065;46.942;7.432;2023-06-26T02:37:54;22.10;99.90
10051;DHT22;5065;46.942;7.432;2023-06-26T02:40:21;22.00;99.90
10051;DHT22;5065;46.942;7.432;2023-06-26T02:42:48;22.00;99.90
10051;DHT22;5065;46.942;7.432;2023-06-26T02:45:15;22.00;99.90
10051;DHT22;5065;46.942;7.432;2023-06-26T02:47:42;22.00;99.90
10051;DHT22;5065;46.942;7.432;2023-06-26T02:50:10;22.00;99.90
10051;DHT22;5065;46.942;7.432;2023-06-26T02:52:38;22.00;99.90
10051;DHT22;5065;46.942;7.432;2023-06-26T02:55:06;22.00;99.90
10051;DHT22;5065;46.942;7.432;2023-06-26T02:57:33;22.00;99.90
10051;DHT22;5065;46.942;7.432;2023-06-26T03:00:00;22.00;99.90
10051;DHT22;5065;46.942;7.432;2023-06-26T03:02:28;22.00;99.90
10051;DHT22;5065;46.942;7.432;2023-06-26T03:04:55;22.00;99.90
10051;DHT22;5065;46.942;7.432;2023-06-26T03:07:23;22.00;99.90
10051;DHT22;5065;46.942;7.432;2023-06-26T03:09:52;22.00;99.90
10051;DHT22;5065;46.942;7.432;2023-06-26T03:12:19;22.00;99.90
10051;DHT22;5065;46.942;7.432;2023-06-26T03:14:46;22.00;99.90
10051;DHT22;5065;46.942;7.432;2023-06-26T03:17:13;22.00;99.90
10051;DHT22;5065;46.942;7.432;2023-06-26T03:19:40;22.00;99.90
10051;DHT22;5065;46.942;7.432;2023-06-26T03:22:08;22.00;99.90
10051;DHT22;5065;46.942;7.432;2023-06-26T03:24:35;22.00;99.90
10051;DHT22;5065;46.942;7.432;2023-06-26T03:27:04;22.00;99.90
10051;DHT22;5065;46.942;7.432;2023-06-26T03:29:31;22.00;99.90
10051;DHT22;5065;46.942;7.432;2023-06-26T03:31:59;22.00;99.90
10051;DHT22;5065;46.942;7.432;2023-06-26T03:34:26;22.00;99.90
10051;DHT22;5065;46.942;7.432;2023-06-26T03:36:54;22.00;99.90
10051;DHT22;5065;46.942;7.432;2023-06-26T03:39:21;22.00;99.90
10051;DHT22;5065;46.942;7.432;2023-06-26T03:41:48;22.00;99.90
10051;DHT22;5065;46.942;7.432;2023-06-26T03:44:17;22.00;99.90
10051;DHT22;5065;46.942;7.432;2023-06-26T03:46:44;22.00;99.90
10051;DHT22;5065;46.942;7.432;2023-06-26T03:49:11;22.00;99.90
10051;DHT22;5065;46.942;7.432;2023-06-26T03:51:38;22.00;99.90
10051;DHT22;5065;46.942;7.432;2023-06-26T03:54:05;22.00;99.90
10051;DHT22;5065;46.942;7.432;2023-06-26T03:56:32;22.00;99.90
10051;DHT22;5065;46.942;7.432;2023-06-26T03:58:59;22.00;99.90
10051;DHT22;5065;46.942;7.432;2023-06-26T04:01:30;22.00;99.90
10051;DHT22;5065;46.942;7.432;2023-06-26T04:03:57;22.00;99.90
10051;DHT22;5065;46.942;7.432;2023-06-26T04:06:24;22.00;99.90
10051;DHT22;5065;46.942;7.432;2023-06-26T04:08:51;22.00;99.90
10051;DHT22;5065;46.942;7.432;2023-06-26T04:11:18;22.00;99.90
10051;DHT22;5065;46.942;7.432;2023-06-26T04:13:45;22.00;99.90
10051;DHT22;5065;46.942;7.432;2023-06-26T04:16:12;22.00;99.90
10051;DHT22;5065;46.942;7.432;2023-06-26T04:18:41;22.00;99.90
10051;DHT22;5065;46.942;7.432;2023-06-26T04:21:09;22.00;99.90
10051;DHT22;5065;46.942;7.432;2023-06-26T04:23:37;22.10;99.90
10051;DHT22;5065;46.942;7.432;2023-06-26T04:26:05;22.10;99.90
10051;DHT22;5065;46.942;7.432;2023-06-26T04:28:38;22.10;99.90
10051;DHT22;5065;46.942;7.432;2023-06-26T04:31:06;22.10;99.90
10051;DHT22;5065;46.942;7.432;2023-06-26T04:33:34;22.10;99.90
10051;DHT22;5065;46.942;7.432;2023-06-26T04:36:03;22.10;99.90
10051;DHT22;5065;46.942;7.432;2023-06-26T04:38:31;22.10;99.90
10051;DHT22;5065;46.942;7.432;2023-06-26T04:40:59;22.10;99.90
10051;DHT22;5065;46.942;7.432;2023-06-26T04:43:35;22.20;99.90
10051;DHT22;5065;46.942;7.432;2023-06-26T04:46:02;22.20;99.90
10051;DHT22;5065;46.942;7.432;2023-06-26T04:48:30;22.10;99.90
10051;DHT22;5065;46.942;7.432;2023-06-26T04:50:57;22.10;99.90
10051;DHT22;5065;46.942;7.432;2023-06-26T04:53:26;22.10;99.90
10051;DHT22;5065;46.942;7.432;2023-06-26T04:55:53;22.10;99.90
10051;DHT22;5065;46.942;7.432;2023-06-26T04:58:20;22.20;99.90
10051;DHT22;5065;46.942;7.432;2023-06-26T05:00:47;22.30;99.90
10051;DHT22;5065;46.942;7.432;2023-06-26T05:03:16;22.40;99.90
10051;DHT22;5065;46.942;7.432;2023-06-26T05:05:44;22.50;99.90
10051;DHT22;5065;46.942;7.432;2023-06-26T05:08:15;22.70;99.90
10051;DHT22;5065;46.942;7.432;2023-06-26T05:10:45;22.80;99.90
10051;DHT22;5065;46.942;7.432;2023-06-26T05:13:12;22.80;99.90
10051;DHT22;5065;46.942;7.432;2023-06-26T05:15:43;22.90;99.90
10051;DHT22;5065;46.942;7.432;2023-06-26T05:18:10;22.90;99.90
10051;DHT22;5065;46.942;7.432;2023-06-26T05:20:38;22.80;99.90
10051;DHT22;5065;46.942;7.432;2023-06-26T05:23:06;22.80;99.90
10051;DHT22;5065;46.942;7.432;2023-06-26T05:25:33;22.80;99.90
10051;DHT22;5065;46.942;7.432;2023-06-26T05:28:03;22.90;99.90
10051;DHT22;5065;46.942;7.432;2023-06-26T05:30:31;22.90;99.90
10051;DHT22;5065;46.942;7.432;2023-06-26T05:33:03;22.90;99.90
10051;DHT22;5065;46.942;7.432;2023-06-26T05:35:34;22.90;99.90
10051;DHT22;5065;46.942;7.432;2023-06-26T05:38:03;22.80;99.90
10051;DHT22;5065;46.942;7.432;2023-06-26T05:40:33;22.90;99.90
10051;DHT22;5065;46.942;7.432;2023-06-26T05:43:05;22.80;99.90
10051;DHT22;5065;46.942;7.432;2023-06-26T05:45:35;22.90;99.90
10051;DHT22;5065;46.942;7.432;2023-06-26T05:48:05;22.90;99.90
10051;DHT22;5065;46.942;7.432;2023-06-26T05:50:46;23.00;99.90
10051;DHT22;5065;46.942;7.432;2023-06-26T05:53:14;23.00;99.90
10051;DHT22;5065;46.942;7.432;2023-06-26T05:55:49;23.10;99.90
10051;DHT22;5065;46.942;7.432;2023-06-26T05:58:18;23.00;99.90
10051;DHT22;5065;46.942;7.432;2023-06-26T06:00:49;23.10;99.90
10051;DHT22;5065;46.942;7.432;2023-06-26T06:03:17;23.10;99.90
10051;DHT22;5065;46.942;7.432;2023-06-26T06:05:44;23.10;99.90
10051;DHT22;5065;46.942;7.432;2023-06-26T06:08:11;23.20;99.90
10051;DHT22;5065;46.942;7.432;2023-06-26T06:10:38;23.20;99.90
10051;DHT22;5065;46.942;7.432;2023-06-26T06:13:06;23.30;99.90
10051;DHT22;5065;46.942;7.432;2023-06-26T06:15:34;23.40;99.90
10051;DHT22;5065;46.942;7.432;2023-06-26T06:18:02;23.50;99.90
10051;DHT22;5065;46.942;7.432;2023-06-26T06:20:29;23.50;99.90
10051;DHT22;5065;46.942;7.432;2023-06-26T06:22:56;23.60;99.90
10051;DHT22;5065;46.942;7.432;2023-06-26T06:25:24;23.70;99.90
10051;DHT22;5065;46.942;7.432;2023-06-26T06:27:51;23.80;99.90
10051;DHT22;5065;46.942;7.432;2023-06-26T06:30:18;23.80;99.90
10051;DHT22;5065;46.942;7.432;2023-06-26T06:32:47;23.90;99.90
10051;DHT22;5065;46.942;7.432;2023-06-26T06:35:17;24.00;99.90
10051;DHT22;5065;46.942;7.432;2023-06-26T06:37:45;24.10;99.90
10051;DHT22;5065;46.942;7.432;2023-06-26T06:40:12;24.20;99.90
10051;DHT22;5065;46.942;7.432;2023-06-26T06:42:39;24.30;99.90
10051;DHT22;5065;46.942;7.432;2023-06-26T06:45:09;24.40;99.90
10051;DHT22;5065;46.942;7.432;2023-06-26T06:47:37;24.50;99.90
10051;DHT22;5065;46.942;7.432;2023-06-26T06:50:06;24.50;99.90
10051;DHT22;5065;46.942;7.432;2023-06-26T06:52:36;24.60;99.90
10051;DHT22;5065;46.942;7.432;2023-06-26T06:55:07;24.70;99.90
10051;DHT22;5065;46.942;7.432;2023-06-26T06:57:37;24.80;99.90
10051;DHT22;5065;46.942;7.432;2023-06-26T07:00:06;24.80;99.90
10051;DHT22;5065;46.942;7.432;2023-06-26T07:02:35;24.90;99.90
10051;DHT22;5065;46.942;7.432;2023-06-26T07:05:02;25.00;99.90
10051;DHT22;5065;46.942;7.432;2023-06-26T07:07:33;25.10;99.90
10051;DHT22;5065;46.942;7.432;2023-06-26T07:10:02;25.10;99.90
10051;DHT22;5065;46.942;7.432;2023-06-26T07:12:29;25.20;99.90
10051;DHT22;5065;46.942;7.432;2023-06-26T07:14:56;25.20;99.90
10051;DHT22;5065;46.942;7.432;2023-06-26T07:17:23;25.30;99.90
10051;DHT22;5065;46.942;7.432;2023-06-26T07:19:50;25.40;99.90
10051;DHT22;5065;46.942;7.432;2023-06-26T07:22:17;25.50;99.90
10051;DHT22;5065;46.942;7.432;2023-06-26T07:24:47;25.50;99.90
10051;DHT22;5065;46.942;7.432;2023-06-26T07:27:14;25.60;99.90
10051;DHT22;5065;46.942;7.432;2023-06-26T07:29:41;25.70;99.90
10051;DHT22;5065;46.942;7.432;2023-06-26T07:32:08;25.70;99.90
10051;DHT22;5065;46.942;7.432;2023-06-26T07:34:35;25.70;99.90
10051;DHT22;5065;46.942;7.432;2023-06-26T07:37:02;25.80;99.90
10051;DHT22;5065;46.942;7.432;2023-06-26T07:39:29;25.90;99.90
10051;DHT22;5065;46.942;7.432;2023-06-26T07:41:58;26.00;99.90
10051;DHT22;5065;46.942;7.432;2023-06-26T07:44:25;26.10;99.90
10051;DHT22;5065;46.942;7.432;2023-06-26T07:46:54;26.20;99.90
10051;DHT22;5065;46.942;7.432;2023-06-26T07:49:23;26.30;99.90
10051;DHT22;5065;46.942;7.432;2023-06-26T07:51:52;26.30;99.90
10051;DHT22;5065;46.942;7.432;2023-06-26T07:54:24;26.40;99.90
10051;DHT22;5065;46.942;7.432;2023-06-26T07:56:54;26.50;99.90
10051;DHT22;5065;46.942;7.432;2023-06-26T07:59:23;26.50;99.90
10051;DHT22;5065;46.942;7.432;2023-06-26T08:01:52;26.50;99.90
10051;DHT22;5065;46.942;7.432;2023-06-26T08:04:19;26.60;99.90
10051;DHT22;5065;46.942;7.432;2023-06-26T08:06:47;26.70;99.90
10051;DHT22;5065;46.942;7.432;2023-06-26T08:09:14;26.70;99.90
10051;DHT22;5065;46.942;7.432;2023-06-26T08:11:41;26.80;99.90
10051;DHT22;5065;46.942;7.432;2023-06-26T08:14:08;26.90;99.90
10051;DHT22;5065;46.942;7.432;2023-06-26T08:16:38;27.00;99.90
10051;DHT22;5065;46.942;7.432;2023-06-26T08:19:07;27.10;99.90
10051;DHT22;5065;46.942;7.432;2023-06-26T08:21:34;27.20;99.90
10051;DHT22;5065;46.942;7.432;2023-06-26T08:24:01;27.30;99.90
10051;DHT22;5065;46.942;7.432;2023-06-26T08:26:28;27.30;99.90
10051;DHT22;5065;46.942;7.432;2023-06-26T08:28:55;27.40;99.90
10051;DHT22;5065;46.942;7.432;2023-06-26T08:31:22;27.50;99.50
10051;DHT22;5065;46.942;7.432;2023-06-26T08:33:52;27.60;99.20
10051;DHT22;5065;46.942;7.432;2023-06-26T08:36:19;27.70;99.20
10051;DHT22;5065;46.942;7.432;2023-06-26T08:38:46;27.90;99.50
10051;DHT22;5065;46.942;7.432;2023-06-26T08:41:13;28.00;98.30
10051;DHT22;5065;46.942;7.432;2023-06-26T08:43:40;28.10;97.50
10051;DHT22;5065;46.942;7.432;2023-06-26T08:46:08;28.30;97.30
10051;DHT22;5065;46.942;7.432;2023-06-26T08:48:36;28.30;97.20
10051;DHT22;5065;46.942;7.432;2023-06-26T08:51:09;28.40;97.40
10051;DHT22;5065;46.942;7.432;2023-06-26T08:53:48;28.50;96.80
10051;DHT22;5065;46.942;7.432;2023-06-26T08:56:18;28.50;96.50
10051;DHT22;5065;46.942;7.432;2023-06-26T08:58:47;28.70;96.60
10051;DHT22;5065;46.942;7.432;2023-06-26T09:01:14;28.70;96.20
10051;DHT22;5065;46.942;7.432;2023-06-26T09:03:42;28.80;95.80
10051;DHT22;5065;46.942;7.432;2023-06-26T09:06:11;28.80;95.50
10051;DHT22;5065;46.942;7.432;2023-06-26T09:08:38;28.90;95.30
10051;DHT22;5065;46.942;7.432;2023-06-26T09:11:06;28.90;95.30
10051;DHT22;5065;46.942;7.432;2023-06-26T09:13:33;29.00;95.30
10051;DHT22;5065;46.942;7.432;2023-06-26T09:16:06;29.00;95.20
10051;DHT22;5065;46.942;7.432;2023-06-26T09:18:34;29.10;95.00
10051;DHT22;5065;46.942;7.432;2023-06-26T09:21:06;29.20;95.00
10051;DHT22;5065;46.942;7.432;2023-06-26T09:23:36;29.20;94.50
10051;DHT22;5065;46.942;7.432;2023-06-26T09:26:03;29.30;94.40
10051;DHT22;5065;46.942;7.432;2023-06-26T09:28:31;29.40;94.30
10051;DHT22;5065;46.942;7.432;2023-06-26T09:31:03;29.50;94.10
10051;DHT22;5065;46.942;7.432;2023-06-26T09:33:34;29.50;93.80
10051;DHT22;5065;46.942;7.432;2023-06-26T09:36:05;29.60;93.80
10051;DHT22;5065;46.942;7.432;2023-06-26T09:38:38;29.70;93.50
10051;DHT22;5065;46.942;7.432;2023-06-26T09:41:05;29.70;92.90
10051;DHT22;5065;46.942;7.432;2023-06-26T09:43:32;29.80;93.20
10051;DHT22;5065;46.942;7.432;2023-06-26T09:46:00;29.90;92.90
10051;DHT22;5065;46.942;7.432;2023-06-26T09:48:28;29.90;92.40
10051;DHT22;5065;46.942;7.432;2023-06-26T09:51:00;29.90;92.20
10051;DHT22;5065;46.942;7.432;2023-06-26T09:53:28;30.00;92.10
10051;DHT22;5065;46.942;7.432;2023-06-26T09:55:58;30.10;91.60
10051;DHT22;5065;46.942;7.432;2023-06-26T09:58:27;30.30;89.60
10051;DHT22;5065;46.942;7.432;2023-06-26T10:00:54;30.80;88.80
10051;DHT22;5065;46.942;7.432;2023-06-26T10:03:22;31.30;86.00
10051;DHT22;5065;46.942;7.432;2023-06-26T10:05:49;31.60;84.50
10051;DHT22;5065;46.942;7.432;2023-06-26T10:08:19;31.90;83.10
10051;DHT22;5065;46.942;7.432;2023-06-26T10:10:48;32.10;81.10
10051;DHT22;5065;46.942;7.432;2023-06-26T10:13:19;32.30;79.80
10051;DHT22;5065;46.942;7.432;2023-06-26T10:15:48;32.50;79.50
10051;DHT22;5065;46.942;7.432;2023-06-26T10:18:18;32.60;77.40
10051;DHT22;5065;46.942;7.432;2023-06-26T10:20:46;32.70;78.40
10051;DHT22;5065;46.942;7.432;2023-06-26T10:23:15;32.80;79.40
10051;DHT22;5065;46.942;7.432;2023-06-26T10:25:46;32.80;78.70
10051;DHT22;5065;46.942;7.432;2023-06-26T10:28:16;32.80;78.70
10051;DHT22;5065;46.942;7.432;2023-06-26T10:30:43;32.90;79.20
10051;DHT22;5065;46.942;7.432;2023-06-26T10:33:11;33.00;78.30
10051;DHT22;5065;46.942;7.432;2023-06-26T10:35:42;33.00;76.30
10051;DHT22;5065;46.942;7.432;2023-06-26T10:38:10;33.10;76.50
10051;DHT22;5065;46.942;7.432;2023-06-26T10:40:40;33.10;77.70
10051;DHT22;5065;46.942;7.432;2023-06-26T10:43:11;33.10;76.90
10051;DHT22;5065;46.942;7.432;2023-06-26T10:45:44;33.10;77.30
10051;DHT22;5065;46.942;7.432;2023-06-26T10:48:20;33.00;78.10
10051;DHT22;5065;46.942;7.432;2023-06-26T10:50:48;33.00;78.00
10051;DHT22;5065;46.942;7.432;2023-06-26T10:53:16;33.10;74.60
10051;DHT22;5065;46.942;7.432;2023-06-26T10:55:51;33.10;76.40
10051;DHT22;5065;46.942;7.432;2023-06-26T10:58:28;33.00;76.70
10051;DHT22;5065;46.942;7.432;2023-06-26T11:01:16;32.90;76.10
10051;DHT22;5065;46.942;7.432;2023-06-26T11:03:46;32.80;75.80
10051;DHT22;5065;46.942;7.432;2023-06-26T11:06:16;32.60;76.20
10051;DHT22;5065;46.942;7.432;2023-06-26T11:08:44;32.60;76.60
10051;DHT22;5065;46.942;7.432;2023-06-26T11:11:14;32.50;77.30
10051;DHT22;5065;46.942;7.432;2023-06-26T11:13:47;32.50;78.00
10051;DHT22;5065;46.942;7.432;2023-06-26T11:16:16;32.40;76.80
10051;DHT22;5065;46.942;7.432;2023-06-26T11:18:48;32.40;77.90
10051;DHT22;5065;46.942;7.432;2023-06-26T11:21:21;32.40;77.40
10051;DHT22;5065;46.942;7.432;2023-06-26T11:23:50;32.40;78.00
10051;DHT22;5065;46.942;7.432;2023-06-26T11:26:18;32.50;78.60
10051;DHT22;5065;46.942;7.432;2023-06-26T11:28:50;32.60;79.10
10051;DHT22;5065;46.942;7.432;2023-06-26T11:31:33;32.60;77.50
10051;DHT22;5065;46.942;7.432;2023-06-26T11:34:02;32.70;78.70
10051;DHT22;5065;46.942;7.432;2023-06-26T11:36:31;32.70;78.70
10051;DHT22;5065;46.942;7.432;2023-06-26T11:39:01;32.70;78.20
10051;DHT22;5065;46.942;7.432;2023-06-26T11:41:35;32.70;77.10
10051;DHT22;5065;46.942;7.432;2023-06-26T11:44:03;32.60;76.50
10051;DHT22;5065;46.942;7.432;2023-06-26T11:46:36;32.70;78.20
10051;DHT22;5065;46.942;7.432;2023-06-26T11:49:04;32.70;77.60
10051;DHT22;5065;46.942;7.432;2023-06-26T11:51:34;32.70;77.60
10051;DHT22;5065;46.942;7.432;2023-06-26T11:54:07;32.70;77.60
10051;DHT22;5065;46.942;7.432;2023-06-26T11:56:35;32.70;77.20
10051;DHT22;5065;46.942;7.432;2023-06-26T11:59:03;32.70;77.70
10051;DHT22;5065;46.942;7.432;2023-06-26T12:01:34;32.70;78.50
10051;DHT22;5065;46.942;7.432;2023-06-26T12:04:04;32.70;76.90
10051;DHT22;5065;46.942;7.432;2023-06-26T12:06:33;32.70;78.40
10051;DHT22;5065;46.942;7.432;2023-06-26T12:09:02;32.70;77.60
10051;DHT22;5065;46.942;7.432;2023-06-26T12:11:31;32.70;78.30
10051;DHT22;5065;46.942;7.432;2023-06-26T12:14:00;32.80;78.80
10051;DHT22;5065;46.942;7.432;2023-06-26T12:16:30;32.80;78.90
10051;DHT22;5065;46.942;7.432;2023-06-26T12:19:00;32.80;78.50
10051;DHT22;5065;46.942;7.432;2023-06-26T12:21:34;32.80;80.30
10051;DHT22;5065;46.942;7.432;2023-06-26T12:24:13;32.80;78.70
10051;DHT22;5065;46.942;7.432;2023-06-26T12:26:43;32.80;80.00
10051;DHT22;5065;46.942;7.432;2023-06-26T12:29:11;32.80;78.10
10051;DHT22;5065;46.942;7.432;2023-06-26T12:31:42;32.80;78.80
10051;DHT22;5065;46.942;7.432;2023-06-26T12:34:15;32.80;78.80
10051;DHT22;5065;46.942;7.432;2023-06-26T12:37:01;32.90;78.70
10051;DHT22;5065;46.942;7.432;2023-06-26T12:39:29;32.80;79.50
10051;DHT22;5065;46.942;7.432;2023-06-26T12:42:24;32.80;79.10
10051;DHT22;5065;46.942;7.432;2023-06-26T12:44:52;32.80;78.30
10051;DHT22;5065;46.942;7.432;2023-06-26T12:47:24;32.80;77.30
10051;DHT22;5065;46.942;7.432;2023-06-26T12:49:54;32.80;76.20
10051;DHT22;5065;46.942;7.432;2023-06-26T12:52:22;32.80;78.10
10051;DHT22;5065;46.942;7.432;2023-06-26T12:54:52;32.80;78.40
10051;DHT22;5065;46.942;7.432;2023-06-26T12:57:20;32.80;77.50
10051;DHT22;5065;46.942;7.432;2023-06-26T12:59:47;32.80;78.40
10051;DHT22;5065;46.942;7.432;2023-06-26T13:02:14;32.80;78.90
10051;DHT22;5065;46.942;7.432;2023-06-26T13:04:45;32.80;78.80
10051;DHT22;5065;46.942;7.432;2023-06-26T13:07:13;32.80;78.90
10051;DHT22;5065;46.942;7.432;2023-06-26T13:09:41;32.70;79.20
10051;DHT22;5065;46.942;7.432;2023-06-26T13:12:11;32.70;79.10
10051;DHT22;5065;46.942;7.432;2023-06-26T13:14:38;32.60;77.80
10051;DHT22;5065;46.942;7.432;2023-06-26T13:17:05;32.50;79.20
10051;DHT22;5065;46.942;7.432;2023-06-26T13:19:32;32.50;78.20
10051;DHT22;5065;46.942;7.432;2023-06-26T13:22:00;32.50;79.40
10051;DHT22;5065;46.942;7.432;2023-06-26T13:24:28;32.50;79.60
10051;DHT22;5065;46.942;7.432;2023-06-26T13:26:55;32.50;79.60
10051;DHT22;5065;46.942;7.432;2023-06-26T13:29:23;32.40;78.80
10051;DHT22;5065;46.942;7.432;2023-06-26T13:32:00;32.40;79.10
10051;DHT22;5065;46.942;7.432;2023-06-26T13:34:42;32.40;79.30
10051;DHT22;5065;46.942;7.432;2023-06-26T13:37:10;32.50;78.00
10051;DHT22;5065;46.942;7.432;2023-06-26T13:39:52;32.50;78.20
10051;DHT22;5065;46.942;7.432;2023-06-26T13:42:19;32.50;78.80
10051;DHT22;5065;46.942;7.432;2023-06-26T13:44:47;32.60;79.10
10051;DHT22;5065;46.942;7.432;2023-06-26T13:47:15;32.60;79.00
10051;DHT22;5065;46.942;7.432;2023-06-26T13:49:42;32.70;78.30
10051;DHT22;5065;46.942;7.432;2023-06-26T13:52:28;32.60;78.00
10051;DHT22;5065;46.942;7.432;2023-06-26T13:55:06;32.60;78.50
10051;DHT22;5065;46.942;7.432;2023-06-26T13:57:34;32.50;78.10
10051;DHT22;5065;46.942;7.432;2023-06-26T14:00:08;32.50;77.90
10051;DHT22;5065;46.942;7.432;2023-06-26T14:02:37;32.50;77.60
10051;DHT22;5065;46.942;7.432;2023-06-26T14:05:05;32.50;77.50
10051;DHT22;5065;46.942;7.432;2023-06-26T14:07:32;32.50;77.30
10051;DHT22;5065;46.942;7.432;2023-06-26T14:09:59;32.50;77.10
10051;DHT22;5065;46.942;7.432;2023-06-26T14:12:28;32.50;76.70
10051;DHT22;5065;46.942;7.432;2023-06-26T14:15:12;32.50;76.30
10051;DHT22;5065;46.942;7.432;2023-06-26T14:17:53;32.50;76.30
10051;DHT22;5065;46.942;7.432;2023-06-26T14:20:21;32.50;75.80
10051;DHT22;5065;46.942;7.432;2023-06-26T14:22:58;32.50;76.20
10051;DHT22;5065;46.942;7.432;2023-06-26T14:25:24;32.40;76.10
10051;DHT22;5065;46.942;7.432;2023-06-26T14:28:14;32.30;76.60
10051;DHT22;5065;46.942;7.432;2023-06-26T14:30:46;32.20;76.80
10051;DHT22;5065;46.942;7.432;2023-06-26T14:51:35;32.20;75.40
10051;DHT22;5065;46.942;7.432;2023-06-26T14:54:03;32.20;76.10
10051;DHT22;5065;46.942;7.432;2023-06-26T14:56:31;32.20;76.50
10051;DHT22;5065;46.942;7.432;2023-06-26T14:58:58;32.20;76.10
10051;DHT22;5065;46.942;7.432;2023-06-26T15:01:25;32.20;76.50
10051;DHT22;5065;46.942;7.432;2023-06-26T15:03:52;32.20;76.40
10051;DHT22;5065;46.942;7.432;2023-06-26T15:06:19;32.20;74.40
10051;DHT22;5065;46.942;7.432;2023-06-26T15:08:47;32.20;74.00
10051;DHT22;5065;46.942;7.432;2023-06-26T15:11:14;32.20;75.30
10051;DHT22;5065;46.942;7.432;2023-06-26T15:13:41;32.20;75.80
10051;DHT22;5065;46.942;7.432;2023-06-26T15:16:08;32.10;75.70
10051;DHT22;5065;46.942;7.432;2023-06-26T15:18:35;32.10;75.20
10051;DHT22;5065;46.942;7.432;2023-06-26T15:21:02;32.10;75.80
10051;DHT22;5065;46.942;7.432;2023-06-26T15:23:29;32.10;75.50
10051;DHT22;5065;46.942;7.432;2023-06-26T15:25:57;32.00;75.50
10051;DHT22;5065;46.942;7.432;2023-06-26T15:28:24;32.00;75.00
10051;DHT22;5065;46.942;7.432;2023-06-26T15:30:51;32.00;75.60
10051;DHT22;5065;46.942;7.432;2023-06-26T15:33:18;32.00;75.60
10051;DHT22;5065;46.942;7.432;2023-06-26T15:35:50;32.00;76.20
10051;DHT22;5065;46.942;7.432;2023-06-26T15:38:17;32.00;76.40
10051;DHT22;5065;46.942;7.432;2023-06-26T15:40:44;32.00;76.30
10051;DHT22;5065;46.942;7.432;2023-06-26T15:43:12;32.00;76.00
10051;DHT22;5065;46.942;7.432;2023-06-26T15:45:39;32.00;75.40
10051;DHT22;5065;46.942;7.432;2023-06-26T15:48:06;32.00;75.50
10051;DHT22;5065;46.942;7.432;2023-06-26T15:50:33;32.00;75.50
10051;DHT22;5065;46.942;7.432;2023-06-26T15:53:01;31.90;75.50
10051;DHT22;5065;46.942;7.432;2023-06-26T15:55:28;31.90;75.80
10051;DHT22;5065;46.942;7.432;2023-06-26T15:57:55;31.90;75.40
10051;DHT22;5065;46.942;7.432;2023-06-26T16:00:24;31.90;75.40
10051;DHT22;5065;46.942;7.432;2023-06-26T16:02:50;31.90;75.50
10051;DHT22;5065;46.942;7.432;2023-06-26T16:05:17;31.90;75.90
10051;DHT22;5065;46.942;7.432;2023-06-26T16:07:44;31.90;75.30
10051;DHT22;5065;46.942;7.432;2023-06-26T16:10:11;31.80;75.30
10051;DHT22;5065;46.942;7.432;2023-06-26T16:12:38;31.80;75.40
10051;DHT22;5065;46.942;7.432;2023-06-26T16:15:05;31.80;75.70